GCLP/LPA METAR and TAF weather

Enter ICAO airport designator
Station Type Date Time Source
GCLP METAR 2019/05/19 06:00 UTC NOAA

GCLP 190600Z 01018KT 9999 FEW025 19/14 Q1016 NOSIG


Station Type Date Time Source
GCLP Decoded METAR 2019/05/19 06:00 UTC NOAA

Gran Canaria - Canary Islands, Spain (GCLP) 27-56N 015-23W 47M
May 19, 2019 - 02:00 AM EDT / 2019.05.19 0600 UTC
Wind: from the N (010 degrees) at 21 MPH (18 KT):0
Visibility: greater than 7 mile(s):0
Sky conditions: mostly clear
Temperature: 66 F (19 C)
Dew Point: 57 F (14 C)
Relative Humidity: 72%
Pressure (altimeter): 30.00 in. Hg (1016 hPa)
ob: GCLP 190600Z 01018KT 9999 FEW025 19/14 Q1016 NOSIG
cycle: 6

Station Type Date Time Source
GCLP TAF 2019/05/19 03:30 UTC NOAA

TAF GCLP 190200Z 1903/2003 36021KT 9999 SCT025 TX22/1914Z TN17/1906Z PROB40
TEMPO 1909/1920 02024G34KT

Example: see airport list